sensor_id;sensor_type;location;lat;lon;timestamp;temperature;humidity
18141;DHT22;9196;49.194;12.526;2022-11-23T00:01:54;3.60;99.90
18141;DHT22;9196;49.194;12.526;2022-11-23T00:04:21;3.60;99.90
18141;DHT22;9196;49.194;12.526;2022-11-23T00:06:49;3.60;99.90
18141;DHT22;9196;49.194;12.526;2022-11-23T00:09:16;3.60;99.90
18141;DHT22;9196;49.194;12.526;2022-11-23T00:11:43;3.70;99.90
18141;DHT22;9196;49.194;12.526;2022-11-23T00:14:09;3.70;99.90
18141;DHT22;9196;49.194;12.526;2022-11-23T00:16:37;3.70;99.90
18141;DHT22;9196;49.194;12.526;2022-11-23T00:19:04;3.60;99.90
18141;DHT22;9196;49.194;12.526;2022-11-23T00:21:32;3.60;99.90
18141;DHT22;9196;49.194;12.526;2022-11-23T00:23:58;3.60;99.90
18141;DHT22;9196;49.194;12.526;2022-11-23T00:26:26;3.60;99.90
18141;DHT22;9196;49.194;12.526;2022-11-23T00:28:52;3.60;99.90
18141;DHT22;9196;49.194;12.526;2022-11-23T00:31:20;3.70;99.90
18141;DHT22;9196;49.194;12.526;2022-11-23T00:33:50;3.70;99.90
18141;DHT22;9196;49.194;12.526;2022-11-23T00:36:17;3.70;99.90
18141;DHT22;9196;49.194;12.526;2022-11-23T00:38:44;3.70;99.90
18141;DHT22;9196;49.194;12.526;2022-11-23T00:41:13;3.70;99.90
18141;DHT22;9196;49.194;12.526;2022-11-23T00:43:40;3.70;99.90
18141;DHT22;9196;49.194;12.526;2022-11-23T00:46:09;3.60;99.90
18141;DHT22;9196;49.194;12.526;2022-11-23T00:48:37;3.60;99.90
18141;DHT22;9196;49.194;12.526;2022-11-23T00:51:07;3.60;99.90
18141;DHT22;9196;49.194;12.526;2022-11-23T00:53:35;3.60;99.90
18141;DHT22;9196;49.194;12.526;2022-11-23T00:56:02;3.60;99.90
18141;DHT22;9196;49.194;12.526;2022-11-23T00:58:29;3.60;99.90
18141;DHT22;9196;49.194;12.526;2022-11-23T01:01:00;3.60;99.90
18141;DHT22;9196;49.194;12.526;2022-11-23T01:03:28;3.60;99.90
18141;DHT22;9196;49.194;12.526;2022-11-23T01:05:55;3.60;99.90
18141;DHT22;9196;49.194;12.526;2022-11-23T01:08:23;3.60;99.90
18141;DHT22;9196;49.194;12.526;2022-11-23T01:10:50;3.60;99.90
18141;DHT22;9196;49.194;12.526;2022-11-23T01:13:17;3.50;99.90
18141;DHT22;9196;49.194;12.526;2022-11-23T01:15:48;3.60;99.90
18141;DHT22;9196;49.194;12.526;2022-11-23T01:18:16;3.60;99.90
18141;DHT22;9196;49.194;12.526;2022-11-23T01:20:42;3.50;99.90
18141;DHT22;9196;49.194;12.526;2022-11-23T01:23:09;3.60;99.90
18141;DHT22;9196;49.194;12.526;2022-11-23T01:25:38;3.50;99.90
18141;DHT22;9196;49.194;12.526;2022-11-23T01:28:05;3.50;99.90
18141;DHT22;9196;49.194;12.526;2022-11-23T01:30:32;3.40;99.90
18141;DHT22;9196;49.194;12.526;2022-11-23T01:33:01;3.40;99.90
18141;DHT22;9196;49.194;12.526;2022-11-23T01:35:28;3.40;99.90
18141;DHT22;9196;49.194;12.526;2022-11-23T01:37:55;3.40;99.90
18141;DHT22;9196;49.194;12.526;2022-11-23T01:40:22;3.50;99.90
18141;DHT22;9196;49.194;12.526;2022-11-23T01:42:54;3.50;99.90
18141;DHT22;9196;49.194;12.526;2022-11-23T01:45:38;3.50;99.90
18141;DHT22;9196;49.194;12.526;2022-11-23T01:48:13;3.40;99.90
18141;DHT22;9196;49.194;12.526;2022-11-23T01:50:41;3.40;99.90
18141;DHT22;9196;49.194;12.526;2022-11-23T01:53:08;3.40;99.90
18141;DHT22;9196;49.194;12.526;2022-11-23T01:55:36;3.40;99.90
18141;DHT22;9196;49.194;12.526;2022-11-23T01:58:05;3.40;99.90
18141;DHT22;9196;49.194;12.526;2022-11-23T02:00:35;3.40;99.90
18141;DHT22;9196;49.194;12.526;2022-11-23T02:03:03;3.30;99.90
18141;DHT22;9196;49.194;12.526;2022-11-23T02:05:32;3.40;99.90
18141;DHT22;9196;49.194;12.526;2022-11-23T02:08:01;3.30;99.90
18141;DHT22;9196;49.194;12.526;2022-11-23T02:10:29;3.40;99.90
18141;DHT22;9196;49.194;12.526;2022-11-23T02:13:00;3.40;99.90
18141;DHT22;9196;49.194;12.526;2022-11-23T02:15:28;3.40;99.90
18141;DHT22;9196;49.194;12.526;2022-11-23T02:17:57;3.40;99.90
18141;DHT22;9196;49.194;12.526;2022-11-23T02:20:25;3.40;99.90
18141;DHT22;9196;49.194;12.526;2022-11-23T02:23:13;3.40;99.90
18141;DHT22;9196;49.194;12.526;2022-11-23T02:25:53;3.50;99.90
18141;DHT22;9196;49.194;12.526;2022-11-23T02:28:23;3.50;99.90
18141;DHT22;9196;49.194;12.526;2022-11-23T02:30:52;3.50;99.90
18141;DHT22;9196;49.194;12.526;2022-11-23T02:33:20;3.60;99.90
18141;DHT22;9196;49.194;12.526;2022-11-23T02:35:48;3.60;99.90
18141;DHT22;9196;49.194;12.526;2022-11-23T02:38:17;3.60;99.90
18141;DHT22;9196;49.194;12.526;2022-11-23T02:40:44;3.60;99.90
18141;DHT22;9196;49.194;12.526;2022-11-23T02:43:13;3.60;99.90
18141;DHT22;9196;49.194;12.526;2022-11-23T02:45:44;3.50;99.90
18141;DHT22;9196;49.194;12.526;2022-11-23T02:48:12;3.60;99.90
18141;DHT22;9196;49.194;12.526;2022-11-23T02:50:38;3.60;99.90
18141;DHT22;9196;49.194;12.526;2022-11-23T02:53:05;3.60;99.90
18141;DHT22;9196;49.194;12.526;2022-11-23T02:55:32;3.60;99.90
18141;DHT22;9196;49.194;12.526;2022-11-23T02:57:59;3.50;99.90
18141;DHT22;9196;49.194;12.526;2022-11-23T03:00:27;3.50;99.90
18141;DHT22;9196;49.194;12.526;2022-11-23T03:02:54;3.50;99.90
18141;DHT22;9196;49.194;12.526;2022-11-23T03:05:21;3.40;99.90
18141;DHT22;9196;49.194;12.526;2022-11-23T03:07:48;3.40;99.90
18141;DHT22;9196;49.194;12.526;2022-11-23T03:10:15;3.40;99.90
18141;DHT22;9196;49.194;12.526;2022-11-23T03:12:41;3.40;99.90
18141;DHT22;9196;49.194;12.526;2022-11-23T03:15:09;3.30;99.90
18141;DHT22;9196;49.194;12.526;2022-11-23T03:17:37;3.40;99.90
18141;DHT22;9196;49.194;12.526;2022-11-23T03:20:05;3.40;99.90
18141;DHT22;9196;49.194;12.526;2022-11-23T03:22:33;3.50;99.90
18141;DHT22;9196;49.194;12.526;2022-11-23T03:24:59;3.60;99.90
18141;DHT22;9196;49.194;12.526;2022-11-23T03:27:26;3.60;99.90
18141;DHT22;9196;49.194;12.526;2022-11-23T03:29:55;3.50;99.90
18141;DHT22;9196;49.194;12.526;2022-11-23T03:32:22;3.50;99.90
18141;DHT22;9196;49.194;12.526;2022-11-23T03:34:50;3.60;99.90
18141;DHT22;9196;49.194;12.526;2022-11-23T03:37:17;3.60;99.90
18141;DHT22;9196;49.194;12.526;2022-11-23T03:39:44;3.60;99.90
18141;DHT22;9196;49.194;12.526;2022-11-23T03:42:11;3.60;99.90
18141;DHT22;9196;49.194;12.526;2022-11-23T03:44:37;3.60;99.90
18141;DHT22;9196;49.194;12.526;2022-11-23T03:47:04;3.60;99.90
18141;DHT22;9196;49.194;12.526;2022-11-23T03:49:31;3.60;99.90
18141;DHT22;9196;49.194;12.526;2022-11-23T03:51:59;3.50;99.90
18141;DHT22;9196;49.194;12.526;2022-11-23T03:54:26;3.50;99.90
18141;DHT22;9196;49.194;12.526;2022-11-23T03:56:53;3.50;99.90
18141;DHT22;9196;49.194;12.526;2022-11-23T03:59:20;3.50;99.90
18141;DHT22;9196;49.194;12.526;2022-11-23T04:01:46;3.50;99.90
18141;DHT22;9196;49.194;12.526;2022-11-23T04:04:13;3.50;99.90
18141;DHT22;9196;49.194;12.526;2022-11-23T04:06:40;3.50;99.90
18141;DHT22;9196;49.194;12.526;2022-11-23T04:09:10;3.50;99.90
18141;DHT22;9196;49.194;12.526;2022-11-23T04:11:37;3.50;99.90
18141;DHT22;9196;49.194;12.526;2022-11-23T04:14:04;3.50;99.90
18141;DHT22;9196;49.194;12.526;2022-11-23T04:16:31;3.50;99.90
18141;DHT22;9196;49.194;12.526;2022-11-23T04:18:57;3.60;99.90
18141;DHT22;9196;49.194;12.526;2022-11-23T04:21:24;3.60;99.90
18141;DHT22;9196;49.194;12.526;2022-11-23T04:23:51;3.60;99.90
18141;DHT22;9196;49.194;12.526;2022-11-23T04:26:19;3.70;99.90
18141;DHT22;9196;49.194;12.526;2022-11-23T04:28:46;3.70;99.90
18141;DHT22;9196;49.194;12.526;2022-11-23T04:31:13;3.70;99.90
18141;DHT22;9196;49.194;12.526;2022-11-23T04:33:40;3.80;99.90
18141;DHT22;9196;49.194;12.526;2022-11-23T04:36:07;3.80;99.90
18141;DHT22;9196;49.194;12.526;2022-11-23T04:38:34;3.80;99.90
18141;DHT22;9196;49.194;12.526;2022-11-23T04:41:01;3.90;99.90
18141;DHT22;9196;49.194;12.526;2022-11-23T04:43:29;3.90;99.90
18141;DHT22;9196;49.194;12.526;2022-11-23T04:45:56;3.90;99.90
18141;DHT22;9196;49.194;12.526;2022-11-23T04:48:23;3.90;99.90
18141;DHT22;9196;49.194;12.526;2022-11-23T04:50:50;4.00;99.90
18141;DHT22;9196;49.194;12.526;2022-11-23T04:53:17;3.90;99.90
18141;DHT22;9196;49.194;12.526;2022-11-23T04:55:45;3.80;99.90
18141;DHT22;9196;49.194;12.526;2022-11-23T04:58:12;3.80;99.90
18141;DHT22;9196;49.194;12.526;2022-11-23T05:00:40;3.70;99.90
18141;DHT22;9196;49.194;12.526;2022-11-23T05:03:07;3.80;99.90
18141;DHT22;9196;49.194;12.526;2022-11-23T05:05:36;3.80;99.90
18141;DHT22;9196;49.194;12.526;2022-11-23T05:08:03;3.90;99.90
18141;DHT22;9196;49.194;12.526;2022-11-23T05:10:30;3.90;99.90
18141;DHT22;9196;49.194;12.526;2022-11-23T05:12:57;3.90;99.90
18141;DHT22;9196;49.194;12.526;2022-11-23T05:15:24;3.90;99.90
18141;DHT22;9196;49.194;12.526;2022-11-23T05:17:53;3.90;99.90
18141;DHT22;9196;49.194;12.526;2022-11-23T05:20:20;3.80;99.90
18141;DHT22;9196;49.194;12.526;2022-11-23T05:22:47;3.80;99.90
18141;DHT22;9196;49.194;12.526;2022-11-23T05:25:13;3.80;99.90
18141;DHT22;9196;49.194;12.526;2022-11-23T05:27:40;3.80;99.90
18141;DHT22;9196;49.194;12.526;2022-11-23T05:30:08;3.80;99.90
18141;DHT22;9196;49.194;12.526;2022-11-23T05:32:35;3.70;99.90
18141;DHT22;9196;49.194;12.526;2022-11-23T05:35:04;3.70;99.90
18141;DHT22;9196;49.194;12.526;2022-11-23T05:37:31;3.60;99.90
18141;DHT22;9196;49.194;12.526;2022-11-23T05:39:59;3.70;99.90
18141;DHT22;9196;49.194;12.526;2022-11-23T05:42:26;3.70;99.90
18141;DHT22;9196;49.194;12.526;2022-11-23T05:44:53;3.70;99.90
18141;DHT22;9196;49.194;12.526;2022-11-23T05:47:20;3.70;99.90
18141;DHT22;9196;49.194;12.526;2022-11-23T05:49:46;3.70;99.90
18141;DHT22;9196;49.194;12.526;2022-11-23T05:52:15;3.70;99.90
18141;DHT22;9196;49.194;12.526;2022-11-23T05:54:42;3.70;99.90
18141;DHT22;9196;49.194;12.526;2022-11-23T05:57:09;3.70;99.90
18141;DHT22;9196;49.194;12.526;2022-11-23T05:59:36;3.80;99.90
18141;DHT22;9196;49.194;12.526;2022-11-23T06:02:03;3.80;99.90
18141;DHT22;9196;49.194;12.526;2022-11-23T06:04:30;3.80;99.90
18141;DHT22;9196;49.194;12.526;2022-11-23T06:06:57;3.80;99.90
18141;DHT22;9196;49.194;12.526;2022-11-23T06:09:26;3.80;99.90
18141;DHT22;9196;49.194;12.526;2022-11-23T06:11:53;3.80;99.90
18141;DHT22;9196;49.194;12.526;2022-11-23T06:14:20;3.80;99.90
18141;DHT22;9196;49.194;12.526;2022-11-23T06:16:47;3.80;99.90
18141;DHT22;9196;49.194;12.526;2022-11-23T06:19:14;3.80;99.90
18141;DHT22;9196;49.194;12.526;2022-11-23T06:21:41;3.90;99.90
18141;DHT22;9196;49.194;12.526;2022-11-23T06:24:08;3.90;99.90
18141;DHT22;9196;49.194;12.526;2022-11-23T06:26:37;3.90;99.90
18141;DHT22;9196;49.194;12.526;2022-11-23T06:29:04;3.90;99.90
18141;DHT22;9196;49.194;12.526;2022-11-23T06:31:31;3.80;99.90
18141;DHT22;9196;49.194;12.526;2022-11-23T06:33:58;3.80;99.90
18141;DHT22;9196;49.194;12.526;2022-11-23T06:36:24;3.70;99.90
18141;DHT22;9196;49.194;12.526;2022-11-23T06:38:51;3.70;99.90
18141;DHT22;9196;49.194;12.526;2022-11-23T06:41:19;3.70;99.90
18141;DHT22;9196;49.194;12.526;2022-11-23T06:43:47;3.70;99.90
18141;DHT22;9196;49.194;12.526;2022-11-23T06:46:15;3.70;99.90
18141;DHT22;9196;49.194;12.526;2022-11-23T06:48:43;3.70;99.90
18141;DHT22;9196;49.194;12.526;2022-11-23T06:51:11;3.70;99.90
18141;DHT22;9196;49.194;12.526;2022-11-23T06:53:38;3.80;99.90
18141;DHT22;9196;49.194;12.526;2022-11-23T06:56:05;3.80;99.90
18141;DHT22;9196;49.194;12.526;2022-11-23T06:58:32;3.80;99.90
18141;DHT22;9196;49.194;12.526;2022-11-23T07:01:01;3.70;99.90
18141;DHT22;9196;49.194;12.526;2022-11-23T07:03:29;3.70;99.90
18141;DHT22;9196;49.194;12.526;2022-11-23T07:05:56;3.70;99.90
18141;DHT22;9196;49.194;12.526;2022-11-23T07:08:22;3.60;99.90
18141;DHT22;9196;49.194;12.526;2022-11-23T07:10:49;3.70;99.90
18141;DHT22;9196;49.194;12.526;2022-11-23T07:13:17;3.70;99.90
18141;DHT22;9196;49.194;12.526;2022-11-23T07:15:44;3.70;99.90
18141;DHT22;9196;49.194;12.526;2022-11-23T07:18:13;3.80;99.90
18141;DHT22;9196;49.194;12.526;2022-11-23T07:20:40;3.80;99.90
18141;DHT22;9196;49.194;12.526;2022-11-23T07:23:09;3.80;99.90
18141;DHT22;9196;49.194;12.526;2022-11-23T07:25:37;3.80;99.90
18141;DHT22;9196;49.194;12.526;2022-11-23T07:28:06;3.80;99.90
18141;DHT22;9196;49.194;12.526;2022-11-23T07:30:34;3.80;99.90
18141;DHT22;9196;49.194;12.526;2022-11-23T07:33:02;3.80;99.90
18141;DHT22;9196;49.194;12.526;2022-11-23T07:35:31;3.80;99.90
18141;DHT22;9196;49.194;12.526;2022-11-23T07:37:58;3.80;99.90
18141;DHT22;9196;49.194;12.526;2022-11-23T07:40:25;3.80;99.90
18141;DHT22;9196;49.194;12.526;2022-11-23T07:42:52;3.80;99.90
18141;DHT22;9196;49.194;12.526;2022-11-23T07:45:24;3.80;99.90
18141;DHT22;9196;49.194;12.526;2022-11-23T07:47:57;3.80;99.90
18141;DHT22;9196;49.194;12.526;2022-11-23T07:50:24;3.80;99.90
18141;DHT22;9196;49.194;12.526;2022-11-23T07:52:53;3.90;99.90
18141;DHT22;9196;49.194;12.526;2022-11-23T07:55:20;4.00;99.90
18141;DHT22;9196;49.194;12.526;2022-11-23T07:57:51;4.00;99.90
18141;DHT22;9196;49.194;12.526;2022-11-23T08:00:18;4.00;99.90
18141;DHT22;9196;49.194;12.526;2022-11-23T08:02:45;4.20;99.90
18141;DHT22;9196;49.194;12.526;2022-11-23T08:05:12;4.30;99.90
18141;DHT22;9196;49.194;12.526;2022-11-23T08:07:39;4.40;99.90
18141;DHT22;9196;49.194;12.526;2022-11-23T08:10:08;4.40;99.90
18141;DHT22;9196;49.194;12.526;2022-11-23T08:12:35;4.40;99.90
18141;DHT22;9196;49.194;12.526;2022-11-23T08:15:02;4.40;99.90
18141;DHT22;9196;49.194;12.526;2022-11-23T08:17:29;4.50;99.90
18141;DHT22;9196;49.194;12.526;2022-11-23T08:19:56;4.40;99.90
18141;DHT22;9196;49.194;12.526;2022-11-23T08:22:23;4.40;99.90
18141;DHT22;9196;49.194;12.526;2022-11-23T08:24:51;4.40;99.90
18141;DHT22;9196;49.194;12.526;2022-11-23T08:27:19;4.30;99.90
18141;DHT22;9196;49.194;12.526;2022-11-23T08:29:46;4.40;99.90
18141;DHT22;9196;49.194;12.526;2022-11-23T08:32:13;4.40;99.90
18141;DHT22;9196;49.194;12.526;2022-11-23T08:34:41;4.50;99.90
18141;DHT22;9196;49.194;12.526;2022-11-23T08:37:08;4.40;99.90
18141;DHT22;9196;49.194;12.526;2022-11-23T08:39:35;4.40;99.90
18141;DHT22;9196;49.194;12.526;2022-11-23T08:42:02;4.50;99.90
18141;DHT22;9196;49.194;12.526;2022-11-23T08:44:30;4.60;99.90
18141;DHT22;9196;49.194;12.526;2022-11-23T08:46:57;4.70;99.90
18141;DHT22;9196;49.194;12.526;2022-11-23T08:49:23;4.80;99.90
18141;DHT22;9196;49.194;12.526;2022-11-23T08:51:50;4.90;99.90
18141;DHT22;9196;49.194;12.526;2022-11-23T08:54:19;4.90;99.90
18141;DHT22;9196;49.194;12.526;2022-11-23T08:56:47;5.00;99.90
18141;DHT22;9196;49.194;12.526;2022-11-23T08:59:14;5.20;99.90
18141;DHT22;9196;49.194;12.526;2022-11-23T09:01:44;5.40;99.90
18141;DHT22;9196;49.194;12.526;2022-11-23T09:04:11;5.50;99.90
18141;DHT22;9196;49.194;12.526;2022-11-23T09:06:38;5.60;99.90
18141;DHT22;9196;49.194;12.526;2022-11-23T09:09:05;5.70;99.90
18141;DHT22;9196;49.194;12.526;2022-11-23T09:11:32;5.70;99.90
18141;DHT22;9196;49.194;12.526;2022-11-23T09:13:58;5.80;99.90
18141;DHT22;9196;49.194;12.526;2022-11-23T09:16:25;5.70;99.90
18141;DHT22;9196;49.194;12.526;2022-11-23T09:18:55;5.60;99.90
18141;DHT22;9196;49.194;12.526;2022-11-23T09:21:22;5.60;99.90
18141;DHT22;9196;49.194;12.526;2022-11-23T09:23:54;5.60;99.90
18141;DHT22;9196;49.194;12.526;2022-11-23T09:26:21;5.60;99.90
18141;DHT22;9196;49.194;12.526;2022-11-23T09:28:47;5.70;99.90
18141;DHT22;9196;49.194;12.526;2022-11-23T09:31:14;5.70;99.90
18141;DHT22;9196;49.194;12.526;2022-11-23T09:33:41;5.70;99.90
18141;DHT22;9196;49.194;12.526;2022-11-23T09:36:09;5.70;99.90
18141;DHT22;9196;49.194;12.526;2022-11-23T09:38:36;5.80;99.90
18141;DHT22;9196;49.194;12.526;2022-11-23T09:41:15;5.80;99.90
18141;DHT22;9196;49.194;12.526;2022-11-23T09:43:53;5.80;99.90
18141;DHT22;9196;49.194;12.526;2022-11-23T09:46:30;5.90;99.90
18141;DHT22;9196;49.194;12.526;2022-11-23T09:49:11;5.90;99.90
18141;DHT22;9196;49.194;12.526;2022-11-23T09:51:40;6.00;99.90
18141;DHT22;9196;49.194;12.526;2022-11-23T09:54:14;6.00;99.90
18141;DHT22;9196;49.194;12.526;2022-11-23T09:56:46;6.00;99.90
18141;DHT22;9196;49.194;12.526;2022-11-23T09:59:22;6.00;99.90
18141;DHT22;9196;49.194;12.526;2022-11-23T10:01:51;6.10;99.90
18141;DHT22;9196;49.194;12.526;2022-11-23T10:04:19;6.10;99.90
18141;DHT22;9196;49.194;12.526;2022-11-23T10:06:52;6.20;99.90
18141;DHT22;9196;49.194;12.526;2022-11-23T10:09:28;6.20;99.90
18141;DHT22;9196;49.194;12.526;2022-11-23T10:15:00;6.30;99.90
18141;DHT22;9196;49.194;12.526;2022-11-23T10:20:33;6.40;99.90
18141;DHT22;9196;49.194;12.526;2022-11-23T10:23:09;6.50;99.90
18141;DHT22;9196;49.194;12.526;2022-11-23T10:25:43;6.50;99.90
18141;DHT22;9196;49.194;12.526;2022-11-23T10:28:13;6.60;99.90
18141;DHT22;9196;49.194;12.526;2022-11-23T10:30:41;6.70;99.90
18141;DHT22;9196;49.194;12.526;2022-11-23T10:33:18;6.70;99.90
18141;DHT22;9196;49.194;12.526;2022-11-23T10:35:47;6.80;99.90
18141;DHT22;9196;49.194;12.526;2022-11-23T10:38:17;6.80;99.90
18141;DHT22;9196;49.194;12.526;2022-11-23T10:40:48;6.80;99.90
18141;DHT22;9196;49.194;12.526;2022-11-23T10:43:19;6.90;99.90
18141;DHT22;9196;49.194;12.526;2022-11-23T10:45:46;7.10;99.90
18141;DHT22;9196;49.194;12.526;2022-11-23T10:48:32;7.20;99.90
18141;DHT22;9196;49.194;12.526;2022-11-23T10:51:14;7.30;99.90
18141;DHT22;9196;49.194;12.526;2022-11-23T10:53:43;7.40;99.90
18141;DHT22;9196;49.194;12.526;2022-11-23T10:56:11;7.30;99.90
18141;DHT22;9196;49.194;12.526;2022-11-23T10:58:42;7.40;99.90
18141;DHT22;9196;49.194;12.526;2022-11-23T11:01:12;7.50;99.90
18141;DHT22;9196;49.194;12.526;2022-11-23T11:03:40;7.60;99.90
18141;DHT22;9196;49.194;12.526;2022-11-23T11:06:07;7.50;99.90
18141;DHT22;9196;49.194;12.526;2022-11-23T11:08:44;7.40;99.90
18141;DHT22;9196;49.194;12.526;2022-11-23T11:11:24;7.40;99.90
18141;DHT22;9196;49.194;12.526;2022-11-23T11:14:00;7.40;99.90
18141;DHT22;9196;49.194;12.526;2022-11-23T11:16:30;7.40;99.90
18141;DHT22;9196;49.194;12.526;2022-11-23T11:18:57;7.40;99.90
18141;DHT22;9196;49.194;12.526;2022-11-23T11:21:31;7.40;99.90
18141;DHT22;9196;49.194;12.526;2022-11-23T11:24:00;7.30;99.90
18141;DHT22;9196;49.194;12.526;2022-11-23T11:26:30;7.30;99.90
18141;DHT22;9196;49.194;12.526;2022-11-23T11:28:59;7.30;99.90
18141;DHT22;9196;49.194;12.526;2022-11-23T11:31:40;7.30;99.90
18141;DHT22;9196;49.194;12.526;2022-11-23T11:34:20;7.30;99.90
18141;DHT22;9196;49.194;12.526;2022-11-23T11:36:58;7.40;99.90
18141;DHT22;9196;49.194;12.526;2022-11-23T11:39:31;7.40;99.90
18141;DHT22;9196;49.194;12.526;2022-11-23T11:42:05;7.40;99.90
18141;DHT22;9196;49.194;12.526;2022-11-23T11:44:36;7.40;99.90
18141;DHT22;9196;49.194;12.526;2022-11-23T11:47:22;7.40;99.90
18141;DHT22;9196;49.194;12.526;2022-11-23T11:49:54;7.40;99.90
18141;DHT22;9196;49.194;12.526;2022-11-23T11:52:26;7.30;99.90
18141;DHT22;9196;49.194;12.526;2022-11-23T11:55:00;7.30;99.90
18141;DHT22;9196;49.194;12.526;2022-11-23T11:57:34;7.30;99.90
18141;DHT22;9196;49.194;12.526;2022-11-23T12:00:06;7.30;99.90
18141;DHT22;9196;49.194;12.526;2022-11-23T12:02:40;7.30;99.90
18141;DHT22;9196;49.194;12.526;2022-11-23T12:05:13;7.30;99.90
18141;DHT22;9196;49.194;12.526;2022-11-23T12:07:47;7.20;99.90
18141;DHT22;9196;49.194;12.526;2022-11-23T12:10:17;7.10;99.90
18141;DHT22;9196;49.194;12.526;2022-11-23T12:12:48;7.10;99.90
18141;DHT22;9196;49.194;12.526;2022-11-23T12:15:19;7.10;99.90
18141;DHT22;9196;49.194;12.526;2022-11-23T12:20:52;7.10;99.90
18141;DHT22;9196;49.194;12.526;2022-11-23T12:23:29;7.10;99.90
18141;DHT22;9196;49.194;12.526;2022-11-23T12:26:11;7.20;99.90
18141;DHT22;9196;49.194;12.526;2022-11-23T12:28:51;7.30;99.90
18141;DHT22;9196;49.194;12.526;2022-11-23T12:31:33;7.60;99.90
18141;DHT22;9196;49.194;12.526;2022-11-23T12:34:14;7.80;99.90
18141;DHT22;9196;49.194;12.526;2022-11-23T12:37:02;8.00;99.90
18141;DHT22;9196;49.194;12.526;2022-11-23T12:42:35;8.40;99.90
18141;DHT22;9196;49.194;12.526;2022-11-23T12:45:17;8.20;99.90
18141;DHT22;9196;49.194;12.526;2022-11-23T12:47:53;8.00;99.90
18141;DHT22;9196;49.194;12.526;2022-11-23T12:50:25;8.00;99.90
18141;DHT22;9196;49.194;12.526;2022-11-23T12:53:00;7.90;99.90
18141;DHT22;9196;49.194;12.526;2022-11-23T12:55:36;7.90;99.90
18141;DHT22;9196;49.194;12.526;2022-11-23T12:58:10;7.90;99.90
18141;DHT22;9196;49.194;12.526;2022-11-23T13:00:45;7.90;99.90
18141;DHT22;9196;49.194;12.526;2022-11-23T13:06:39;7.80;99.90
18141;DHT22;9196;49.194;12.526;2022-11-23T13:09:26;7.90;99.90
18141;DHT22;9196;49.194;12.526;2022-11-23T13:12:17;8.40;99.90
18141;DHT22;9196;49.194;12.526;2022-11-23T13:14:49;8.80;99.90
18141;DHT22;9196;49.194;12.526;2022-11-23T13:17:31;9.20;99.90
18141;DHT22;9196;49.194;12.526;2022-11-23T13:22:48;10.00;99.90
18141;DHT22;9196;49.194;12.526;2022-11-23T13:25:22;10.50;99.90
18141;DHT22;9196;49.194;12.526;2022-11-23T13:27:55;10.90;99.90
18141;DHT22;9196;49.194;12.526;2022-11-23T13:30:31;11.00;99.90
18141;DHT22;9196;49.194;12.526;2022-11-23T13:33:04;11.20;99.90
18141;DHT22;9196;49.194;12.526;2022-11-23T13:35:57;11.20;99.90
18141;DHT22;9196;49.194;12.526;2022-11-23T13:38:36;11.40;99.90
18141;DHT22;9196;49.194;12.526;2022-11-23T13:41:03;11.60;99.90
18141;DHT22;9196;49.194;12.526;2022-11-23T13:43:50;11.80;99.90
18141;DHT22;9196;49.194;12.526;2022-11-23T13:46:22;11.90;99.90
18141;DHT22;9196;49.194;12.526;2022-11-23T13:48:55;11.70;99.90
18141;DHT22;9196;49.194;12.526;2022-11-23T13:51:26;11.20;99.90
18141;DHT22;9196;49.194;12.526;2022-11-23T13:53:57;10.90;99.90
18141;DHT22;9196;49.194;12.526;2022-11-23T13:56:34;10.60;99.90
18141;DHT22;9196;49.194;12.526;2022-11-23T13:59:28;10.40;99.90
18141;DHT22;9196;49.194;12.526;2022-11-23T14:02:24;10.40;99.90
18141;DHT22;9196;49.194;12.526;2022-11-23T14:07:53;10.40;99.90
18141;DHT22;9196;49.194;12.526;2022-11-23T14:10:22;10.50;99.90
18141;DHT22;9196;49.194;12.526;2022-11-23T14:12:54;10.80;99.90
18141;DHT22;9196;49.194;12.526;2022-11-23T14:15:24;10.90;99.90
18141;DHT22;9196;49.194;12.526;2022-11-23T14:18:17;11.10;99.90
18141;DHT22;9196;49.194;12.526;2022-11-23T14:21:13;11.20;99.90
18141;DHT22;9196;49.194;12.526;2022-11-23T14:26:48;11.00;99.90
18141;DHT22;9196;49.194;12.526;2022-11-23T14:29:29;10.80;99.90
18141;DHT22;9196;49.194;12.526;2022-11-23T14:32:14;10.50;99.90
18141;DHT22;9196;49.194;12.526;2022-11-23T14:34:49;10.00;99.90
18141;DHT22;9196;49.194;12.526;2022-11-23T14:37:26;9.40;99.90
18141;DHT22;9196;49.194;12.526;2022-11-23T14:40:00;8.90;99.90
18141;DHT22;9196;49.194;12.526;2022-11-23T14:42:30;8.60;99.90
18141;DHT22;9196;49.194;12.526;2022-11-23T14:45:02;8.20;99.90
18141;DHT22;9196;49.194;12.526;2022-11-23T14:47:30;8.10;99.90
18141;DHT22;9196;49.194;12.526;2022-11-23T14:49:57;8.00;99.90
18141;DHT22;9196;49.194;12.526;2022-11-23T14:52:27;8.00;99.90
18141;DHT22;9196;49.194;12.526;2022-11-23T14:54:57;7.90;99.90
18141;DHT22;9196;49.194;12.526;2022-11-23T14:57:28;7.90;99.90
18141;DHT22;9196;49.194;12.526;2022-11-23T14:59:58;7.80;99.90
18141;DHT22;9196;49.194;12.526;2022-11-23T15:02:32;7.70;99.90
18141;DHT22;9196;49.194;12.526;2022-11-23T15:05:05;7.60;99.90
18141;DHT22;9196;49.194;12.526;2022-11-23T15:07:41;7.60;99.90
18141;DHT22;9196;49.194;12.526;2022-11-23T15:10:21;7.50;99.90
18141;DHT22;9196;49.194;12.526;2022-11-23T15:12:50;7.40;99.90
18141;DHT22;9196;49.194;12.526;2022-11-23T15:15:18;7.40;99.90
18141;DHT22;9196;49.194;12.526;2022-11-23T15:17:52;7.40;99.90
18141;DHT22;9196;49.194;12.526;2022-11-23T15:20:20;7.30;99.90
18141;DHT22;9196;49.194;12.526;2022-11-23T15:22:50;7.30;99.90
18141;DHT22;9196;49.194;12.526;2022-11-23T15:25:17;7.20;99.90
18141;DHT22;9196;49.194;12.526;2022-11-23T15:27:45;7.10;99.90
18141;DHT22;9196;49.194;12.526;2022-11-23T15:30:18;7.10;99.90
18141;DHT22;9196;49.194;12.526;2022-11-23T15:32:54;7.00;99.90
18141;DHT22;9196;49.194;12.526;2022-11-23T15:35:27;6.90;99.90
18141;DHT22;9196;49.194;12.526;2022-11-23T15:37:56;6.80;99.90
18141;DHT22;9196;49.194;12.526;2022-11-23T15:40:27;6.80;99.90
18141;DHT22;9196;49.194;12.526;2022-11-23T15:42:55;6.60;99.90
18141;DHT22;9196;49.194;12.526;2022-11-23T15:46:02;6.50;99.90
18141;DHT22;9196;49.194;12.526;2022-11-23T15:48:31;6.40;99.90
18141;DHT22;9196;49.194;12.526;2022-11-23T15:51:01;6.30;99.90
18141;DHT22;9196;49.194;12.526;2022-11-23T15:53:31;6.30;99.90
18141;DHT22;9196;49.194;12.526;2022-11-23T15:56:00;6.30;99.90
18141;DHT22;9196;49.194;12.526;2022-11-23T15:58:29;6.30;99.90
18141;DHT22;9196;49.194;12.526;2022-11-23T16:01:02;6.40;99.90
18141;DHT22;9196;49.194;12.526;2022-11-23T16:03:34;6.40;99.90
18141;DHT22;9196;49.194;12.526;2022-11-23T16:06:12;6.30;99.90
18141;DHT22;9196;49.194;12.526;2022-11-23T16:08:41;6.10;99.90
18141;DHT22;9196;49.194;12.526;2022-11-23T16:11:18;6.00;99.90
18141;DHT22;9196;49.194;12.526;2022-11-23T16:13:45;5.80;99.90
18141;DHT22;9196;49.194;12.526;2022-11-23T16:16:13;5.70;99.90
18141;DHT22;9196;49.194;12.526;2022-11-23T16:18:43;5.50;99.90
18141;DHT22;9196;49.194;12.526;2022-11-23T16:21:14;5.40;99.90
18141;DHT22;9196;49.194;12.526;2022-11-23T16:23:46;5.40;99.90
18141;DHT22;9196;49.194;12.526;2022-11-23T16:26:14;5.30;99.90
18141;DHT22;9196;49.194;12.526;2022-11-23T16:28:48;5.30;99.90